Hauptseite
METAR-TAF:

METAR-TAF

Flughäfen :

Princess Juliana International Airport

Sint Maarten, Niederländische Antillen

Breite: 18-03N, Länge: 063-07W, Höhe: 4 m

Beobachtung

Neuester Wetterbericht von vor 52 Minuten, um 20:00 UTC
Wind 13 kt aus Ost/Nordost, variierte zwischen Nordost und Ost/Südost
Temperatur 29°C
Luftfeuchtigkeit 66%
Luftdruck 1013 hPa
Sichtweite 10 km oder mehr
Aufgelockert bewölkt in der Höhe von 2300 ft

METAR: TNCM 182000Z 07013KT 040V110 9999 SCT023 29/22 Q1013 NOSIG RMK A2993

Zeit: 16:52 (20:52 UTC)

Prognose

Neuester Wetterbericht von vor 3 Stunden und 32 Minuten, um 17:20 UTC
Gültige Prognose vom 18 um 18 UTC bis 19 um 18 UTC
Wind 12 kt aus Ost
Sichtweite: 10 km
Aufgelockert bewölkt in der Höhe von 2000 ft

TAF: TNCM 181720Z 1818/1918 08012KT P6SM SCT020

Wetterbeobachtungen und Prognosen von mehr als 4000 Flughäfen (METAR und TAF Bericht).

Die verfügbaren Stationen werden durch gelbe und rote Markierungen auf der Karte dargestellt.

Führen Sie die Maus auf sie, um den Namen der Station zu sehen.

Darauf klicken, um die Beobachtung von Wetterbeobachtungen und Prognosen zu sehen.

Um die Karte zu ändern : klicken Sie auf den grünen Tasten mit einem schwarzen Kreuz Zum Vergrößern, auf den grünen Button mit einem Gedankenstrich zu verkleinern, oder auf die grünen Pfeile für benachbarte Karten.


METAR-TAF: